createdAt,value
2023-04-19T00:02:16.944Z,68.08
2023-04-19T00:07:20.532Z,68.19
2023-04-19T00:12:23.584Z,68.29
2023-04-19T00:17:27.446Z,68.48
2023-04-19T00:22:30.635Z,68.57
2023-04-19T00:27:33.646Z,68.81
2023-04-19T00:32:36.792Z,68.82
2023-04-19T00:37:39.869Z,69.08
2023-04-19T00:42:42.834Z,69.22
2023-04-19T00:47:48.322Z,69.30
2023-04-19T00:52:53.770Z,69.48
2023-04-19T00:57:57.516Z,69.61
2023-04-19T01:03:01.270Z,69.97
2023-04-19T01:08:04.708Z,70.22
2023-04-19T01:13:07.697Z,70.15
2023-04-19T01:18:14.260Z,70.22
2023-04-19T01:23:19.078Z,70.20
2023-04-19T01:28:22.201Z,70.26
2023-04-19T01:33:26.410Z,70.34
2023-04-19T01:38:29.513Z,70.33
2023-04-19T01:43:32.561Z,70.42
2023-04-19T01:48:38.821Z,70.40
2023-04-19T01:53:41.818Z,70.63
2023-04-19T01:58:44.821Z,70.39
2023-04-19T02:03:48.129Z,70.20
2023-04-19T02:08:51.407Z,69.80
2023-04-19T02:13:54.507Z,69.61
2023-04-19T02:18:57.644Z,69.49
2023-04-19T02:24:01.394Z,69.27
2023-04-19T02:29:06.959Z,69.15
2023-04-19T02:34:10.428Z,68.99
2023-04-19T02:39:13.491Z,68.85
2023-04-19T02:44:16.968Z,68.87
2023-04-19T02:49:21.278Z,68.94
2023-04-19T02:54:24.315Z,69.06
2023-04-19T02:59:27.932Z,69.17
2023-04-19T03:04:32.074Z,69.14
2023-04-19T03:09:35.310Z,69.10
2023-04-19T03:14:39.940Z,69.10
2023-04-19T03:19:43.115Z,68.79
2023-04-19T03:24:47.069Z,68.70
2023-04-19T03:29:57.524Z,68.79
2023-04-19T03:35:01.554Z,68.31
2023-04-19T03:40:06.201Z,68.38
2023-04-19T03:45:10.430Z,68.35
2023-04-19T03:50:16.888Z,67.96
2023-04-19T03:55:22.190Z,68.13
2023-04-19T04:00:25.288Z,68.00
2023-04-19T04:05:31.764Z,68.26
2023-04-19T04:10:36.233Z,67.99
2023-04-19T04:15:39.495Z,68.04
2023-04-19T04:20:44.564Z,67.94
2023-04-19T04:25:47.913Z,67.84
2023-04-19T04:30:52.113Z,68.01
2023-04-19T04:35:56.680Z,68.03
2023-04-19T04:41:00.314Z,68.06
2023-04-19T04:46:04.313Z,68.10
2023-04-19T04:51:11.137Z,68.16
2023-04-19T04:56:15.163Z,68.12
2023-04-19T05:01:19.835Z,67.86
2023-04-19T05:06:23.866Z,67.77
2023-04-19T05:11:27.373Z,67.62
2023-04-19T05:16:31.454Z,67.58
2023-04-19T05:21:35.001Z,67.75
2023-04-19T05:26:39.269Z,67.79
2023-04-19T05:31:42.863Z,67.81
2023-04-19T05:36:52.821Z,68.12
2023-04-19T05:41:55.846Z,67.93
2023-04-19T05:46:58.874Z,68.14
2023-04-19T05:52:28.375Z,68.16
2023-04-19T05:57:33.956Z,68.44
2023-04-19T06:02:37.343Z,68.32
2023-04-19T06:07:44.021Z,68.26
2023-04-19T06:12:59.534Z,68.01
2023-04-19T06:18:02.587Z,67.91
2023-04-19T06:23:06.328Z,67.41
2023-04-19T06:28:09.384Z,67.18
2023-04-19T06:33:12.419Z,66.82
2023-04-19T06:38:15.354Z,66.74
2023-04-19T06:43:18.444Z,66.56
2023-04-19T06:48:21.499Z,66.22
2023-04-19T06:53:24.656Z,66.19
2023-04-19T06:58:28.734Z,66.00
2023-04-19T07:03:32.068Z,66.11
2023-04-19T07:08:48.663Z,66.01
2023-04-19T07:13:52.746Z,66.06
2023-04-19T07:18:56.017Z,65.78
2023-04-19T07:23:59.775Z,65.55
2023-04-19T07:29:03.354Z,65.47
2023-04-19T07:34:09.428Z,64.86
2023-04-19T07:39:13.366Z,64.46
2023-04-19T07:44:16.593Z,64.31
2023-04-19T07:49:34.045Z,64.02
2023-04-19T07:54:39.392Z,63.96
2023-04-19T07:59:42.496Z,63.90
2023-04-19T08:04:48.350Z,63.59
2023-04-19T08:09:51.865Z,63.82
2023-04-19T08:15:05.302Z,63.96
2023-04-19T08:20:21.825Z,64.09
2023-04-19T08:25:28.787Z,63.77
2023-04-19T08:30:36.110Z,63.63
2023-04-19T08:35:42.174Z,63.18
2023-04-19T08:40:52.758Z,63.24
2023-04-19T08:45:56.774Z,63.38
2023-04-19T08:51:05.587Z,63.56
2023-04-19T08:56:21.083Z,63.57
2023-04-19T09:01:36.052Z,63.83
2023-04-19T09:06:41.267Z,63.44
2023-04-19T09:11:44.882Z,63.59
2023-04-19T09:16:48.680Z,63.54
2023-04-19T09:21:52.015Z,63.61
2023-04-19T09:26:55.964Z,63.60
2023-04-19T10:27:46.981Z,65.25
2023-04-19T10:32:56.541Z,65.26
2023-04-19T10:38:08.891Z,65.28
2023-04-19T10:43:15.574Z,65.23
2023-04-19T10:48:38.144Z,65.31
2023-04-19T10:54:00.399Z,65.14
2023-04-19T10:59:11.620Z,65.10
2023-04-19T11:04:22.075Z,65.20
2023-04-19T11:09:34.959Z,65.54
2023-04-19T11:14:42.028Z,65.57
2023-04-19T11:19:59.004Z,65.82
2023-04-19T11:25:19.592Z,66.07
2023-04-19T11:30:31.087Z,66.14
2023-04-19T11:35:34.822Z,65.93
2023-04-19T11:40:38.123Z,65.57
2023-04-19T11:45:41.926Z,65.42
2023-04-19T11:50:47.912Z,64.97
2023-04-19T11:55:56.278Z,64.68
2023-04-19T12:01:06.762Z,64.26
2023-04-19T12:06:18.588Z,64.43
2023-04-19T12:11:26.614Z,64.65
2023-04-19T12:16:29.886Z,64.86
2023-04-19T12:25:30.691Z,65.45
2023-04-19T12:30:36.692Z,65.85
2023-04-19T12:35:41.174Z,65.83
2023-04-19T12:40:44.568Z,65.81
2023-04-19T12:45:47.590Z,66.04
2023-04-19T12:50:50.684Z,65.73
2023-04-19T12:55:53.711Z,65.09
2023-04-19T13:00:56.897Z,64.82
2023-04-19T13:05:59.909Z,64.36
2023-04-19T13:25:26.731Z,64.74
2023-04-19T13:30:30.691Z,64.34
2023-04-19T13:35:33.824Z,64.25
2023-04-19T13:40:36.810Z,64.13
2023-04-19T13:45:40.009Z,63.82
2023-04-19T13:50:43.315Z,63.62
2023-04-19T13:55:47.037Z,63.59
2023-04-19T14:00:51.290Z,63.32
2023-04-19T14:05:55.300Z,62.96
2023-04-19T14:10:59.175Z,62.08
2023-04-19T14:16:02.673Z,62.81
2023-04-19T14:21:05.934Z,62.36
2023-04-19T14:26:09.377Z,62.34
2023-04-19T14:31:21.906Z,62.47
2023-04-19T14:36:28.968Z,62.42
2023-04-19T14:41:39.622Z,62.40
2023-04-19T14:46:43.106Z,62.38
2023-04-19T14:51:46.297Z,62.03
2023-04-19T14:56:50.743Z,62.43
2023-04-19T15:01:54.089Z,62.36
2023-04-19T15:06:57.319Z,62.03
2023-04-19T15:12:01.894Z,61.69
2023-04-19T15:17:06.042Z,61.40
2023-04-19T15:22:09.592Z,61.16
2023-04-19T15:27:13.713Z,61.71
2023-04-19T15:32:16.893Z,61.95
2023-04-19T15:37:20.966Z,62.18
2023-04-19T15:42:24.372Z,62.47
2023-04-19T15:47:27.875Z,62.86
2023-04-19T15:52:32.428Z,63.02
2023-04-19T15:57:36.562Z,63.52
2023-04-19T16:02:41.306Z,63.75
2023-04-19T16:07:45.596Z,63.87
2023-04-19T16:12:51.373Z,63.97
2023-04-19T16:17:55.635Z,64.11
2023-04-19T16:23:03.151Z,63.68
2023-04-19T16:28:07.402Z,63.56
2023-04-19T16:33:12.180Z,63.54
2023-04-19T16:38:16.427Z,63.74
2023-04-19T16:43:21.516Z,64.00
2023-04-19T16:48:25.445Z,64.27
2023-04-19T16:53:31.422Z,64.14
2023-04-19T16:58:35.437Z,64.46
2023-04-19T17:03:39.383Z,64.60
2023-04-19T17:08:43.047Z,64.69
2023-04-19T17:13:46.900Z,64.93
2023-04-19T17:18:52.900Z,64.79
2023-04-19T17:23:57.006Z,65.07
2023-04-19T17:29:02.061Z,65.36
2023-04-19T17:34:06.460Z,65.14
2023-04-19T17:39:10.523Z,64.89
2023-04-19T17:44:14.725Z,64.82
2023-04-19T17:49:21.792Z,65.25
2023-04-19T17:54:25.409Z,65.51
2023-04-19T17:59:33.090Z,65.90
2023-04-19T18:04:38.744Z,66.88
2023-04-19T18:09:43.379Z,65.83
2023-04-19T18:14:47.347Z,65.88
2023-04-19T18:19:51.300Z,65.85
2023-04-19T18:24:55.172Z,65.89
2023-04-19T18:29:59.270Z,65.94
2023-04-19T18:35:09.665Z,66.13
2023-04-19T18:40:14.897Z,66.29
2023-04-19T18:45:19.122Z,66.13
2023-04-19T18:50:23.178Z,66.21
2023-04-19T18:55:26.999Z,66.85
2023-04-19T19:00:30.723Z,67.09
2023-04-19T19:05:33.918Z,66.17
2023-04-19T19:15:48.261Z,66.22
2023-04-19T19:20:52.995Z,66.72
2023-04-19T19:25:58.557Z,67.21
2023-04-19T19:31:02.688Z,66.34
2023-04-19T19:36:06.285Z,66.21
2023-04-19T19:41:51.502Z,66.48
2023-04-19T19:51:57.797Z,66.49
2023-04-19T20:02:10.417Z,66.73
2023-04-19T20:12:22.114Z,66.95
2023-04-19T20:17:25.696Z,67.26
2023-04-19T20:22:29.663Z,67.29
2023-04-19T20:27:34.126Z,67.32
2023-04-19T20:32:39.865Z,67.62
2023-04-19T20:37:45.011Z,67.83
2023-04-19T20:42:48.613Z,67.78
2023-04-19T20:48:00.014Z,68.03
2023-04-19T20:53:04.444Z,68.19
2023-04-19T20:58:08.502Z,68.22
2023-04-19T21:03:13.731Z,68.57
2023-04-19T21:08:19.277Z,68.90
2023-04-19T21:13:22.830Z,69.35
2023-04-19T21:18:30.096Z,69.61
2023-04-19T21:23:33.166Z,69.89
2023-04-19T21:28:38.203Z,70.06
2023-04-19T21:33:41.779Z,70.31
2023-04-19T21:38:45.317Z,70.24
2023-04-19T21:43:49.090Z,70.22
2023-04-19T21:48:55.673Z,70.21
2023-04-19T21:53:59.223Z,70.33
2023-04-19T21:59:02.450Z,70.86
2023-04-19T22:04:06.796Z,71.13
2023-04-19T22:09:14.620Z,71.03
2023-04-19T22:14:19.365Z,70.95
2023-04-19T22:19:27.338Z,70.79
2023-04-19T22:24:32.198Z,70.96
2023-04-19T22:29:36.617Z,71.15
2023-04-19T22:34:41.186Z,71.35
2023-04-19T22:39:44.645Z,71.51
2023-04-19T22:44:48.216Z,71.54
2023-04-19T22:49:52.569Z,71.16
2023-04-19T22:54:56.750Z,70.87
2023-04-19T23:00:02.698Z,70.89
2023-04-19T23:05:07.661Z,70.93
2023-04-19T23:10:13.397Z,71.11
2023-04-19T23:15:17.912Z,71.14
2023-04-19T23:20:22.040Z,71.25
2023-04-19T23:25:26.704Z,71.41
2023-04-19T23:30:32.740Z,71.46
2023-04-19T23:35:36.200Z,71.52
2023-04-19T23:40:40.951Z,71.46
2023-04-19T23:45:46.305Z,71.49
2023-04-19T23:50:49.912Z,71.44
2023-04-19T23:55:56.041Z,71.54
